createdAt,value
2023-01-13T00:02:38.393Z,0.95
2023-01-13T00:05:21.079Z,0.80
2023-01-13T00:08:07.720Z,0.68
2023-01-13T00:10:50.370Z,1.60
2023-01-13T00:13:35.309Z,0.50
2023-01-13T00:16:18.832Z,2.22
2023-01-13T00:19:01.539Z,2.10
2023-01-13T00:21:44.376Z,2.58
2023-01-13T00:24:28.508Z,3.33
2023-01-13T00:27:11.144Z,2.88
2023-01-13T00:29:53.837Z,2.88
2023-01-13T00:32:36.504Z,3.92
2023-01-13T00:35:19.179Z,7.22
2023-01-13T00:38:01.868Z,2.15
2023-01-13T00:40:45.950Z,1.83
2023-01-13T00:43:28.378Z,1.70
2023-01-13T00:46:12.051Z,1.63
2023-01-13T00:48:54.769Z,3.17
2023-01-13T00:51:37.483Z,3.92
2023-01-13T00:54:20.147Z,2.05
2023-01-13T00:57:04.675Z,0.82
2023-01-13T00:59:49.589Z,1.27
2023-01-13T01:02:32.442Z,1.38
2023-01-13T01:05:15.173Z,2.90
2023-01-13T01:07:57.989Z,3.80
2023-01-13T01:10:40.711Z,4.68
2023-01-13T01:13:24.734Z,1.02
2023-01-13T01:16:08.855Z,3.05
2023-01-13T01:18:52.231Z,2.15
2023-01-13T01:21:35.338Z,2.03
2023-01-13T01:24:18.039Z,2.25
2023-01-13T01:27:00.697Z,1.55
2023-01-13T01:29:44.724Z,2.72
2023-01-13T01:32:27.436Z,2.05
2023-01-13T01:35:10.256Z,1.55
2023-01-13T01:37:52.942Z,2.63
2023-01-13T01:40:35.852Z,4.55
2023-01-13T01:43:37.365Z,3.13
2023-01-13T01:46:21.406Z,3.00
2023-01-13T01:49:07.888Z,4.22
2023-01-13T01:51:52.210Z,2.67
2023-01-13T01:54:38.658Z,3.10
2023-01-13T01:57:24.407Z,3.05
2023-01-13T02:00:07.520Z,4.07
2023-01-13T02:03:00.499Z,3.38
2023-01-13T02:05:43.333Z,1.88
2023-01-13T02:08:26.113Z,4.28
2023-01-13T02:11:29.175Z,3.10
2023-01-13T02:14:10.828Z,4.35
2023-01-13T02:16:58.285Z,4.47
2023-01-13T02:19:56.291Z,5.18
2023-01-13T02:22:47.285Z,6.13
2023-01-13T02:25:46.524Z,5.40
2023-01-13T02:29:00.207Z,4.13
2023-01-13T02:31:45.725Z,3.88
2023-01-13T02:34:33.968Z,6.38
2023-01-13T02:37:18.612Z,3.72
2023-01-13T02:40:02.592Z,4.53
2023-01-13T02:43:06.685Z,4.80
2023-01-13T02:45:51.475Z,3.60
2023-01-13T02:48:36.717Z,4.57
2023-01-13T02:51:20.770Z,4.05
2023-01-13T02:54:05.344Z,7.47
2023-01-13T02:56:49.696Z,7.65
2023-01-13T02:59:32.345Z,8.55
2023-01-13T03:02:17.340Z,4.78
2023-01-13T03:05:01.427Z,7.93
2023-01-13T03:08:01.757Z,6.38
2023-01-13T03:11:05.334Z,5.32
2023-01-13T03:14:02.960Z,4.80
2023-01-13T03:17:00.665Z,6.93
2023-01-13T03:19:45.129Z,7.28
2023-01-13T03:22:33.028Z,8.80
2023-01-13T03:25:18.956Z,4.82
2023-01-13T03:28:03.473Z,8.85
2023-01-13T03:30:49.534Z,5.75
2023-01-13T03:33:35.256Z,4.97
2023-01-13T03:36:19.055Z,5.57
2023-01-13T03:39:07.238Z,6.97
2023-01-13T03:41:52.967Z,3.30
2023-01-13T03:44:36.667Z,4.55
2023-01-13T03:47:22.591Z,7.25
2023-01-13T03:50:07.532Z,7.70
2023-01-13T03:52:51.968Z,7.97
2023-01-13T03:55:37.879Z,4.68
2023-01-13T03:58:21.543Z,5.70
2023-01-13T04:01:06.642Z,9.43
2023-01-13T04:03:52.034Z,7.43
2023-01-13T04:06:39.143Z,5.65
2023-01-13T04:09:25.269Z,9.35
2023-01-13T04:12:10.535Z,7.05
2023-01-13T04:14:53.619Z,9.88
2023-01-13T04:17:36.268Z,10.38
2023-01-13T04:20:19.035Z,11.95
2023-01-13T04:23:01.668Z,8.60
2023-01-13T04:25:45.207Z,8.57
2023-01-13T04:28:29.146Z,7.15
2023-01-13T04:31:12.210Z,7.85
2023-01-13T04:33:54.805Z,9.05
2023-01-13T04:36:37.727Z,9.65
2023-01-13T04:39:20.304Z,7.15
2023-01-13T04:42:02.857Z,6.53
2023-01-13T04:44:46.765Z,11.50
2023-01-13T04:47:29.316Z,10.20
2023-01-13T04:50:12.450Z,11.07
2023-01-13T04:52:55.660Z,8.20
2023-01-13T04:55:38.272Z,8.82
2023-01-13T04:58:21.018Z,7.50
2023-01-13T05:01:04.963Z,8.65
2023-01-13T05:03:47.836Z,10.00
2023-01-13T05:06:30.560Z,9.55
2023-01-13T05:09:15.542Z,9.38
2023-01-13T05:12:15.395Z,9.10
2023-01-13T05:15:15.449Z,7.68
2023-01-13T05:17:59.383Z,11.73
2023-01-13T05:20:42.057Z,8.45
2023-01-13T05:23:41.919Z,12.50
2023-01-13T05:26:24.746Z,14.27
2023-01-13T05:29:07.326Z,8.27
2023-01-13T05:31:49.906Z,6.47
2023-01-13T05:34:34.692Z,12.68
2023-01-13T05:37:17.296Z,7.07
2023-01-13T05:40:17.403Z,8.65
2023-01-13T05:43:21.755Z,8.30
2023-01-13T05:46:05.259Z,8.25
2023-01-13T05:48:48.165Z,7.03
2023-01-13T05:51:32.086Z,11.45
2023-01-13T05:54:14.734Z,12.82
2023-01-13T05:56:57.315Z,7.57
2023-01-13T05:59:39.974Z,8.48
2023-01-13T06:02:22.569Z,12.77
2023-01-13T06:05:05.454Z,10.45
2023-01-13T06:07:49.377Z,7.97
2023-01-13T06:10:32.059Z,11.43
2023-01-13T06:13:14.647Z,10.65
2023-01-13T06:15:58.367Z,10.32
2023-01-13T06:18:41.026Z,13.82
2023-01-13T06:21:23.634Z,11.40
2023-01-13T06:24:08.262Z,12.48
2023-01-13T06:26:50.869Z,10.30
2023-01-13T06:29:33.570Z,11.27
2023-01-13T06:32:18.300Z,10.65
2023-01-13T06:35:05.366Z,8.75
2023-01-13T06:37:50.252Z,11.10
2023-01-13T06:40:34.202Z,6.97
2023-01-13T06:43:16.783Z,11.05
2023-01-13T06:45:59.595Z,8.82
2023-01-13T06:48:42.342Z,17.05
2023-01-13T06:51:25.033Z,9.20
2023-01-13T06:54:07.704Z,9.32
2023-01-13T06:56:51.669Z,8.20
2023-01-13T06:59:35.255Z,10.63
2023-01-13T07:02:17.871Z,9.20
2023-01-13T07:05:00.536Z,6.90
2023-01-13T07:07:43.476Z,9.65
2023-01-13T07:10:26.095Z,8.18
2023-01-13T07:13:27.412Z,8.40
2023-01-13T07:16:10.416Z,11.10
2023-01-13T07:18:53.021Z,9.82
2023-01-13T07:21:35.612Z,9.20
2023-01-13T07:24:18.292Z,9.85
2023-01-13T07:27:00.935Z,8.50
2023-01-13T07:29:45.138Z,7.90
2023-01-13T07:32:27.789Z,9.68
2023-01-13T07:35:10.590Z,12.38
2023-01-13T07:37:53.213Z,11.35
2023-01-13T07:40:35.823Z,12.05
2023-01-13T07:43:32.700Z,8.88
2023-01-13T07:46:17.000Z,8.77
2023-01-13T07:48:59.632Z,10.35
2023-01-13T07:51:42.286Z,8.30
2023-01-13T07:54:39.794Z,11.35
2023-01-13T07:57:23.500Z,9.80
2023-01-13T08:00:06.779Z,8.07
2023-01-13T08:02:50.928Z,9.32
2023-01-13T08:05:35.543Z,12.73
2023-01-13T08:08:18.237Z,12.68
2023-01-13T08:11:01.091Z,11.50
2023-01-13T08:13:43.736Z,9.23
2023-01-13T08:16:26.564Z,11.60
2023-01-13T08:19:10.604Z,10.45
2023-01-13T08:21:53.204Z,9.77
2023-01-13T08:24:35.878Z,7.88
2023-01-13T08:27:20.134Z,10.85
2023-01-13T08:30:02.869Z,5.97
2023-01-13T08:32:45.497Z,11.95
2023-01-13T08:35:29.501Z,8.43
2023-01-13T08:38:13.180Z,8.98
2023-01-13T08:40:55.782Z,9.27
2023-01-13T08:43:38.461Z,11.15
2023-01-13T08:46:21.196Z,9.23
2023-01-13T08:49:04.026Z,10.10
2023-01-13T08:51:48.188Z,9.35
2023-01-13T08:54:30.887Z,9.10
2023-01-13T08:57:13.566Z,11.35
2023-01-13T08:59:56.343Z,10.77
2023-01-13T09:02:39.165Z,12.25
2023-01-13T09:05:21.920Z,6.80
2023-01-13T09:08:06.116Z,7.68
2023-01-13T09:10:48.770Z,8.75
2023-01-13T09:13:30.444Z,8.02
2023-01-13T09:16:13.090Z,10.77
2023-01-13T09:18:55.731Z,9.82
2023-01-13T09:21:38.342Z,6.70
2023-01-13T09:24:22.996Z,9.60
2023-01-13T09:27:05.578Z,6.65
2023-01-13T09:29:48.335Z,7.45
2023-01-13T09:32:30.993Z,7.95
2023-01-13T09:35:12.905Z,11.50
2023-01-13T09:37:55.502Z,7.00
2023-01-13T09:40:41.270Z,8.18
2023-01-13T09:43:43.460Z,6.30
2023-01-13T09:46:47.329Z,4.65
2023-01-13T09:49:34.269Z,6.70
2023-01-13T09:52:19.312Z,9.10
2023-01-13T09:55:03.586Z,8.25
2023-01-13T09:57:47.583Z,6.68
2023-01-13T10:00:34.230Z,7.72
2023-01-13T10:03:21.441Z,9.65
2023-01-13T10:06:07.431Z,6.97
2023-01-13T10:08:50.757Z,7.05
2023-01-13T10:11:54.801Z,6.05
2023-01-13T10:14:42.415Z,6.70
2023-01-13T10:17:28.322Z,6.85
2023-01-13T10:20:17.907Z,5.43
2023-01-13T10:23:04.189Z,7.13
2023-01-13T10:25:53.842Z,8.40
2023-01-13T10:28:36.467Z,8.60
2023-01-13T10:31:20.908Z,4.95
2023-01-13T10:34:04.812Z,5.78
2023-01-13T10:36:54.924Z,5.65
2023-01-13T10:39:41.811Z,6.18
2023-01-13T10:42:25.418Z,3.92
2023-01-13T10:45:18.359Z,7.57
2023-01-13T10:48:08.287Z,1.98
2023-01-13T10:50:50.898Z,5.68
2023-01-13T10:53:33.532Z,4.93
2023-01-13T10:56:17.620Z,4.50
2023-01-13T10:59:27.820Z,3.75
2023-01-13T11:02:25.640Z,7.15
2023-01-13T11:05:19.411Z,5.18
2023-01-13T11:08:02.069Z,6.63
2023-01-13T11:10:46.347Z,3.00
2023-01-13T11:13:32.505Z,2.63
2023-01-13T11:16:16.514Z,3.90
2023-01-13T11:19:12.033Z,7.50
2023-01-13T11:21:59.281Z,7.55
2023-01-13T11:24:44.815Z,5.57
2023-01-13T11:27:32.316Z,4.93
2023-01-13T11:30:24.527Z,3.20
2023-01-13T11:33:21.204Z,5.55
2023-01-13T11:36:09.108Z,5.30
2023-01-13T11:38:53.972Z,7.90
2023-01-13T11:41:42.833Z,6.03
2023-01-13T11:44:28.714Z,4.45
2023-01-13T11:47:11.553Z,4.63
2023-01-13T11:49:54.330Z,2.90
2023-01-13T11:52:48.219Z,4.53
2023-01-13T11:55:36.355Z,5.82
2023-01-13T11:58:38.734Z,4.30
2023-01-13T12:01:45.185Z,4.20
2023-01-13T12:04:29.655Z,4.85
2023-01-13T12:07:15.948Z,5.03
2023-01-13T12:10:05.019Z,6.15
2023-01-13T12:12:53.513Z,3.08
2023-01-13T12:15:57.041Z,6.68
2023-01-13T12:18:58.395Z,5.45
2023-01-13T12:21:42.731Z,5.28
2023-01-13T12:24:29.372Z,4.05
2023-01-13T12:27:14.536Z,4.25
2023-01-13T12:29:59.833Z,4.30
2023-01-13T12:32:43.093Z,4.65
2023-01-13T12:35:33.027Z,5.22
2023-01-13T12:38:19.452Z,4.18
2023-01-13T12:41:09.185Z,6.55
2023-01-13T12:44:10.057Z,6.07
2023-01-13T12:46:56.134Z,7.38
2023-01-13T12:49:38.739Z,4.30
2023-01-13T12:52:21.353Z,6.05
2023-01-13T12:55:08.713Z,5.63
2023-01-13T12:58:13.729Z,6.05
2023-01-13T13:01:01.180Z,3.60
2023-01-13T13:04:05.225Z,5.47
2023-01-13T13:06:52.181Z,5.65
2023-01-13T13:09:38.884Z,4.50
2023-01-13T13:12:51.128Z,3.83
2023-01-13T13:15:34.943Z,4.13
2023-01-13T13:18:24.593Z,4.38
2023-01-13T13:21:08.976Z,8.35
2023-01-13T13:24:04.052Z,6.65
2023-01-13T13:26:47.003Z,7.13
2023-01-13T13:29:35.625Z,4.53
2023-01-13T13:32:33.297Z,6.35
2023-01-13T13:35:21.983Z,3.25
2023-01-13T13:38:31.192Z,6.18
2023-01-13T13:41:36.551Z,4.13
2023-01-13T13:44:38.788Z,4.38
2023-01-13T13:47:21.449Z,5.30
2023-01-13T13:50:08.189Z,2.22
2023-01-13T13:52:54.892Z,4.57
2023-01-13T13:55:38.518Z,2.53
2023-01-13T13:58:22.961Z,5.38
2023-01-13T14:01:06.134Z,4.05
2023-01-13T14:04:04.256Z,3.25
2023-01-13T14:06:51.639Z,2.85
2023-01-13T14:09:41.658Z,4.00
2023-01-13T14:12:25.205Z,2.63
2023-01-13T14:15:23.828Z,3.15
2023-01-13T14:18:13.232Z,4.07
2023-01-13T14:20:56.765Z,3.30
2023-01-13T14:23:39.420Z,4.45
2023-01-13T14:26:24.886Z,4.35
2023-01-13T14:29:07.677Z,2.33
2023-01-13T14:31:51.523Z,2.75
2023-01-13T14:34:36.398Z,2.50
2023-01-13T14:37:26.396Z,4.43
2023-01-13T14:40:23.861Z,4.05
2023-01-13T14:43:11.421Z,4.07
2023-01-13T14:45:55.772Z,2.75
2023-01-13T14:48:39.462Z,5.10
2023-01-13T14:51:25.382Z,7.82
2023-01-13T14:54:22.815Z,4.75
2023-01-13T14:57:13.533Z,5.30
2023-01-13T15:00:01.542Z,6.38
2023-01-13T15:02:44.948Z,4.70
2023-01-13T15:05:51.520Z,5.95
2023-01-13T15:08:39.878Z,2.97
2023-01-13T15:11:25.337Z,2.92
2023-01-13T15:14:11.191Z,4.30
2023-01-13T15:16:53.780Z,2.72
2023-01-13T15:19:36.440Z,1.98
2023-01-13T15:22:19.078Z,3.67
2023-01-13T15:25:03.146Z,5.03
2023-01-13T15:27:47.713Z,4.93
2023-01-13T15:30:30.370Z,3.63
2023-01-13T15:33:14.103Z,3.05
2023-01-13T15:35:56.931Z,3.45
2023-01-13T15:38:39.517Z,1.77
2023-01-13T15:41:37.911Z,4.10
2023-01-13T15:44:38.097Z,4.60
2023-01-13T15:47:21.498Z,5.25
2023-01-13T15:50:04.343Z,5.63
2023-01-13T15:52:46.970Z,2.17
2023-01-13T15:55:29.631Z,2.25
2023-01-13T15:58:14.429Z,3.75
2023-01-13T16:00:57.113Z,3.58
2023-01-13T16:03:39.793Z,1.60
2023-01-13T16:06:25.206Z,1.77
2023-01-13T16:09:07.848Z,0.93
2023-01-13T16:11:50.571Z,1.55
2023-01-13T16:14:34.581Z,0.60
2023-01-13T16:17:18.091Z,1.00
2023-01-13T16:20:00.810Z,2.20
2023-01-13T16:22:45.134Z,0.68
2023-01-13T16:25:28.099Z,1.90
2023-01-13T16:28:19.727Z,2.55
2023-01-13T16:31:15.809Z,3.30
2023-01-13T16:33:58.892Z,3.90
2023-01-13T16:36:41.510Z,3.67
2023-01-13T16:39:24.171Z,2.80
2023-01-13T16:42:06.815Z,2.10
2023-01-13T16:44:50.653Z,3.88
2023-01-13T16:47:34.833Z,1.60
2023-01-13T16:50:22.188Z,2.33
2023-01-13T16:53:05.917Z,3.78
2023-01-13T16:55:48.543Z,2.38
2023-01-13T16:58:31.272Z,2.05
2023-01-13T17:01:18.560Z,3.70
2023-01-13T17:04:02.794Z,1.23
2023-01-13T17:06:49.208Z,1.90
2023-01-13T17:09:31.921Z,2.65
2023-01-13T17:12:14.556Z,1.80
2023-01-13T17:14:57.206Z,1.58
2023-01-13T17:17:40.028Z,2.15
2023-01-13T17:20:24.075Z,1.25
2023-01-13T17:23:06.717Z,2.97
2023-01-13T17:25:49.361Z,1.75
2023-01-13T17:28:31.974Z,1.60
2023-01-13T17:31:14.576Z,1.27
2023-01-13T17:33:57.292Z,2.30
2023-01-13T17:36:42.826Z,1.92
2023-01-13T17:39:26.314Z,2.92
2023-01-13T17:42:08.968Z,3.30
2023-01-13T17:44:51.570Z,2.92
2023-01-13T17:47:34.291Z,2.97
2023-01-13T17:50:17.285Z,2.35
2023-01-13T17:53:01.490Z,4.38
2023-01-13T17:55:49.761Z,4.30
2023-01-13T17:58:33.013Z,2.00
2023-01-13T18:01:16.572Z,3.53
2023-01-13T18:03:59.239Z,4.47
2023-01-13T18:06:41.831Z,3.22
2023-01-13T18:09:26.711Z,3.35
2023-01-13T18:12:09.370Z,2.22
2023-01-13T18:14:51.975Z,5.40
2023-01-13T18:17:34.589Z,3.25
2023-01-13T18:20:35.581Z,2.88
2023-01-13T18:23:36.473Z,2.47
2023-01-13T18:26:38.240Z,4.32
2023-01-13T18:29:20.886Z,3.03
2023-01-13T18:32:03.512Z,1.98
2023-01-13T18:34:46.359Z,2.20
2023-01-13T18:37:28.955Z,1.13
2023-01-13T18:40:12.670Z,1.83
2023-01-13T18:42:55.736Z,1.80
2023-01-13T18:45:38.395Z,0.47
2023-01-13T18:48:21.026Z,2.50
2023-01-13T18:51:03.697Z,1.20
2023-01-13T18:53:46.314Z,1.77
2023-01-13T18:56:30.669Z,3.00
2023-01-13T18:59:14.695Z,1.70
2023-01-13T19:01:58.438Z,1.17
2023-01-13T19:04:41.359Z,1.85
2023-01-13T19:07:27.296Z,1.48
2023-01-13T19:10:10.632Z,1.40
2023-01-13T19:12:53.260Z,1.80
2023-01-13T19:15:38.456Z,2.90
2023-01-13T19:18:22.307Z,2.22
2023-01-13T19:21:05.487Z,2.85
2023-01-13T19:23:48.313Z,1.80
2023-01-13T19:26:30.988Z,1.50
2023-01-13T19:29:14.426Z,2.80
2023-01-13T19:31:58.524Z,2.92
2023-01-13T19:34:41.381Z,2.88
2023-01-13T19:37:23.972Z,1.55
2023-01-13T19:40:09.366Z,1.65
2023-01-13T19:43:09.389Z,1.10
2023-01-13T19:45:52.200Z,1.50
2023-01-13T19:48:36.304Z,1.95
2023-01-13T19:51:18.891Z,1.75
2023-01-13T19:54:01.687Z,2.03
2023-01-13T19:56:44.298Z,3.67
2023-01-13T19:59:29.220Z,2.55
2023-01-13T20:02:14.791Z,4.05
2023-01-13T20:04:59.799Z,4.03
2023-01-13T20:07:42.405Z,3.13
2023-01-13T20:10:25.374Z,2.17
2023-01-13T20:13:08.058Z,2.40
2023-01-13T20:15:50.694Z,1.55
2023-01-13T20:18:36.478Z,5.68
2023-01-13T20:21:20.822Z,2.00
2023-01-13T20:24:03.392Z,4.55
2023-01-13T20:26:47.008Z,4.97
2023-01-13T20:29:29.925Z,2.22
2023-01-13T20:32:12.607Z,2.13
2023-01-13T20:34:55.201Z,5.78
2023-01-13T20:37:40.165Z,4.40
2023-01-13T20:40:22.748Z,3.75
2023-01-13T20:43:05.321Z,4.53
2023-01-13T20:45:47.928Z,2.65
2023-01-13T20:48:30.587Z,4.80
2023-01-13T20:51:13.241Z,2.05
2023-01-13T20:53:58.261Z,2.72
2023-01-13T20:56:41.431Z,3.42
2023-01-13T20:59:24.178Z,2.80
2023-01-13T21:02:08.051Z,1.67
2023-01-13T21:04:50.743Z,4.43
2023-01-13T21:07:34.709Z,4.28
2023-01-13T21:10:18.708Z,2.83
2023-01-13T21:13:18.978Z,2.50
2023-01-13T21:16:01.645Z,2.75
2023-01-13T21:19:13.302Z,2.47
2023-01-13T21:21:56.539Z,5.28
2023-01-13T21:24:39.149Z,6.07
2023-01-13T21:27:23.158Z,3.78
2023-01-13T21:30:06.290Z,4.47
2023-01-13T21:32:49.195Z,5.85
2023-01-13T21:35:31.903Z,4.47
2023-01-13T21:38:14.524Z,2.88
2023-01-13T21:40:59.677Z,4.28
2023-01-13T21:44:00.925Z,2.72
2023-01-13T21:47:01.085Z,3.08
2023-01-13T21:49:44.947Z,3.63
2023-01-13T21:52:27.617Z,6.88
2023-01-13T21:55:25.205Z,2.70
2023-01-13T21:58:09.435Z,3.03
2023-01-13T22:00:54.012Z,5.35
2023-01-13T22:03:56.792Z,2.38
2023-01-13T22:06:39.503Z,3.40
2023-01-13T22:09:22.152Z,4.40
2023-01-13T22:12:05.453Z,3.03
2023-01-13T22:14:48.633Z,4.40
2023-01-13T22:17:32.565Z,5.70
2023-01-13T22:20:15.390Z,3.65
2023-01-13T22:22:58.972Z,3.10
2023-01-13T22:25:41.633Z,4.63
2023-01-13T22:28:33.820Z,3.20
2023-01-13T22:31:18.114Z,5.20
2023-01-13T22:34:02.165Z,3.70
2023-01-13T22:36:44.817Z,6.28
2023-01-13T22:39:27.821Z,4.10
2023-01-13T22:42:11.648Z,4.43
2023-01-13T22:44:54.257Z,3.85
2023-01-13T22:47:36.936Z,5.30
2023-01-13T22:50:22.708Z,6.55
2023-01-13T22:53:05.304Z,5.63
2023-01-13T22:55:54.501Z,5.38
2023-01-13T22:58:37.139Z,2.78
2023-01-13T23:01:19.797Z,3.38
2023-01-13T23:04:02.661Z,4.25
2023-01-13T23:06:46.705Z,2.83
2023-01-13T23:09:30.733Z,2.95
2023-01-13T23:12:13.493Z,3.97
2023-01-13T23:14:56.077Z,5.57
2023-01-13T23:17:38.673Z,3.63
2023-01-13T23:20:21.274Z,2.40
2023-01-13T23:23:05.269Z,4.57
2023-01-13T23:25:50.954Z,5.05
2023-01-13T23:28:33.998Z,3.75
2023-01-13T23:31:17.596Z,2.28
2023-01-13T23:34:00.534Z,4.43
2023-01-13T23:36:44.405Z,2.30
2023-01-13T23:39:28.388Z,4.10
2023-01-13T23:42:11.067Z,3.15
2023-01-13T23:44:53.695Z,3.63
2023-01-13T23:47:36.303Z,5.25
2023-01-13T23:50:19.009Z,6.95
2023-01-13T23:53:01.584Z,3.78
2023-01-13T23:55:45.579Z,7.03
2023-01-13T23:58:28.673Z,4.80
